Time;durP1;ratioP1;P1;durP2;ratioP2;P2;SDS_P1;SDS_P2;PMS_P1;PMS_P2;Temp;Humidity;BMP_temperature;BMP_pressure;BME280_temperature;BME280_humidity;BME280_pressure;Samples;Min_cycle;Max_cycle;Signal;HPM_P1;HPM_P2
2021/03/15 00:01:50;;;;;;;5.25;1.45;;;7.30;90.90;;;;;;4996931;28;20465;-73
2021/03/15 00:04:16;;;;;;;2.38;1.10;;;7.30;90.90;;;;;;5013662;28;20034;-73
2021/03/15 00:06:41;;;;;;;3.42;1.27;;;7.30;91.00;;;;;;5014635;28;20498;-72
2021/03/15 00:09:07;;;;;;;3.53;1.23;;;7.30;91.00;;;;;;5014229;28;20104;-73
2021/03/15 00:11:33;;;;;;;5.32;1.20;;;7.30;91.10;;;;;;5014180;28;20053;-73
2021/03/15 00:13:59;;;;;;;4.55;1.23;;;7.40;91.10;;;;;;5014312;28;20026;-73
2021/03/15 00:16:25;;;;;;;5.53;1.95;;;7.40;91.10;;;;;;5013718;28;20034;-74
2021/03/15 00:18:50;;;;;;;2.88;1.27;;;7.40;91.10;;;;;;5014010;28;20030;-73
2021/03/15 00:21:16;;;;;;;3.42;1.60;;;7.40;91.10;;;;;;4995889;28;20473;-73
2021/03/15 00:23:42;;;;;;;3.45;1.75;;;7.50;91.10;;;;;;5013901;28;20069;-73
2021/03/15 00:26:07;;;;;;;14.32;2.50;;;7.50;91.40;;;;;;5013037;28;20032;-74
2021/03/15 00:28:33;;;;;;;3.42;1.60;;;7.40;91.30;;;;;;5014133;28;20049;-74
2021/03/15 00:30:58;;;;;;;4.63;2.42;;;7.40;91.30;;;;;;5013867;28;20033;-73
2021/03/15 00:33:24;;;;;;;4.90;1.88;;;7.40;91.40;;;;;;4994875;28;20049;-74
2021/03/15 00:35:51;;;;;;;4.30;1.60;;;7.40;91.50;;;;;;5013642;28;20021;-73
2021/03/15 00:38:17;;;;;;;6.45;1.75;;;7.40;91.60;;;;;;5012804;28;20029;-73
2021/03/15 00:40:42;;;;;;;4.32;1.88;;;7.30;91.60;;;;;;4996189;28;20021;-73
2021/03/15 00:43:08;;;;;;;3.22;1.80;;;7.30;91.60;;;;;;5012867;28;20053;-73
2021/03/15 00:45:34;;;;;;;5.20;1.65;;;7.30;91.70;;;;;;5013378;28;20064;-74
2021/03/15 00:48:00;;;;;;;3.95;2.03;;;7.30;91.90;;;;;;5013369;28;20028;-73
2021/03/15 00:50:30;;;;;;;2.92;1.25;;;7.30;92.00;;;;;;5012970;28;20026;-73
2021/03/15 00:52:56;;;;;;;2.90;1.33;;;7.20;92.20;;;;;;4996156;28;20373;-73
2021/03/15 00:55:22;;;;;;;4.22;1.45;;;7.10;92.40;;;;;;5013191;28;20101;-73
2021/03/15 00:57:48;;;;;;;3.58;1.65;;;7.10;92.50;;;;;;4995905;28;20017;-74
2021/03/15 01:00:18;;;;;;;2.95;1.30;;;7.10;92.60;;;;;;4995166;28;20124;-73
2021/03/15 01:02:44;;;;;;;5.70;2.00;;;7.10;92.70;;;;;;5013263;28;20026;-74
2021/03/15 01:05:11;;;;;;;3.28;2.13;;;7.10;92.70;;;;;;5012631;28;20030;-74
2021/03/15 01:07:37;;;;;;;4.07;1.60;;;7.10;92.60;;;;;;5013057;28;20093;-74
2021/03/15 01:10:09;;;;;;;3.78;1.63;;;7.20;92.60;;;;;;5013268;28;20117;-75
2021/03/15 01:12:35;;;;;;;3.13;1.75;;;7.20;92.70;;;;;;5013524;28;20032;-74
2021/03/15 01:15:01;;;;;;;5.00;1.85;;;7.20;92.70;;;;;;5013157;28;20038;-73
2021/03/15 01:17:26;;;;;;;3.28;1.33;;;7.20;92.70;;;;;;5012827;28;20432;-73
2021/03/15 01:19:52;;;;;;;4.95;1.48;;;7.20;92.70;;;;;;4995939;28;20025;-73
2021/03/15 01:22:17;;;;;;;3.38;1.17;;;7.20;92.90;;;;;;5012828;28;20026;-74
2021/03/15 01:24:43;;;;;;;3.60;1.48;;;7.10;93.00;;;;;;5013361;28;20049;-73
2021/03/15 01:27:09;;;;;;;3.17;1.23;;;7.10;93.20;;;;;;5013241;28;20079;-74
2021/03/15 01:29:34;;;;;;;2.42;1.50;;;7.10;93.20;;;;;;5012567;28;20405;-74
2021/03/15 01:32:00;;;;;;;3.90;1.30;;;7.10;93.20;;;;;;5013109;28;20033;-73
2021/03/15 01:34:26;;;;;;;2.38;1.20;;;7.20;93.20;;;;;;4994757;28;20346;-73
2021/03/15 01:36:52;;;;;;;2.10;1.38;;;7.20;93.20;;;;;;5012650;28;20470;-73
2021/03/15 01:39:17;;;;;;;4.70;1.45;;;7.30;93.20;;;;;;5012212;28;20060;-73
2021/03/15 01:41:43;;;;;;;4.05;1.40;;;7.30;93.10;;;;;;5012503;28;20026;-74
2021/03/15 01:44:09;;;;;;;2.30;1.30;;;7.40;93.20;;;;;;4994543;28;20033;-74
2021/03/15 01:46:34;;;;;;;1.73;1.10;;;7.40;93.20;;;;;;5012166;28;20530;-74
2021/03/15 01:49:00;;;;;;;2.90;1.20;;;7.40;93.30;;;;;;5012307;28;20030;-74
2021/03/15 01:51:26;;;;;;;4.50;1.20;;;7.40;93.30;;;;;;4994194;28;20025;-75
2021/03/15 01:53:52;;;;;;;3.42;1.48;;;7.30;93.30;;;;;;5012790;28;20056;-75
2021/03/15 01:56:18;;;;;;;2.42;1.30;;;7.30;93.30;;;;;;5012361;28;20022;-74
2021/03/15 01:58:44;;;;;;;2.67;1.15;;;7.30;93.30;;;;;;4996553;28;20042;-75
2021/03/15 02:01:10;;;;;;;3.72;1.58;;;7.30;93.30;;;;;;5012207;28;20062;-74
2021/03/15 02:03:37;;;;;;;2.85;1.38;;;7.30;93.40;;;;;;5011644;28;20112;-74
2021/03/15 02:06:03;;;;;;;3.25;1.52;;;7.30;93.40;;;;;;5012526;28;20025;-75
2021/03/15 02:08:29;;;;;;;4.35;2.25;;;7.30;93.40;;;;;;5012050;28;20146;-74
2021/03/15 02:10:54;;;;;;;2.35;1.58;;;7.30;93.40;;;;;;5012982;28;20029;-74
2021/03/15 02:13:51;;;;;;;2.72;1.33;;;7.30;93.40;;;;;;5011773;28;20121;-74
2021/03/15 02:16:30;;;;;;;3.05;1.00;;;7.30;93.50;;;;;;5001315;28;20053;-74
2021/03/15 02:19:14;;;;;;;3.33;1.40;;;7.30;93.60;;;;;;4994819;28;20022;-74
2021/03/15 02:22:00;;;;;;;4.90;1.60;;;7.20;93.70;;;;;;4994897;28;20113;-73
2021/03/15 02:24:42;;;;;;;2.05;1.05;;;7.20;93.90;;;;;;5011407;28;20377;-74
2021/03/15 02:27:45;;;;;;;2.85;1.05;;;7.10;93.90;;;;;;4994761;28;20386;-73
2021/03/15 02:30:26;;;;;;;4.35;1.10;;;7.10;94.00;;;;;;5012090;28;20018;-73
2021/03/15 02:33:24;;;;;;;2.05;1.10;;;7.10;94.00;;;;;;5012111;28;20026;-71
2021/03/15 02:35:51;;;;;;;2.13;1.10;;;7.20;94.10;;;;;;5012280;28;20037;-71
2021/03/15 02:38:18;;;;;;;1.92;0.95;;;7.20;94.10;;;;;;5011622;28;20037;-74
2021/03/15 02:40:45;;;;;;;1.38;0.80;;;7.20;94.10;;;;;;4994216;28;20159;-74
2021/03/15 02:44:04;;;;;;;1.77;1.17;;;7.20;94.10;;;;;;5012061;28;20091;-72
2021/03/15 02:46:31;;;;;;;2.60;1.10;;;7.20;94.10;;;;;;4956885;28;20053;-73
2021/03/15 02:49:02;;;;;;;2.15;0.98;;;7.20;94.20;;;;;;5011603;28;20100;-73
2021/03/15 02:51:32;;;;;;;1.48;0.80;;;7.20;94.30;;;;;;5011277;28;20029;-73
2021/03/15 02:54:01;;;;;;;0.60;0.60;;;7.10;94.30;;;;;;5012098;28;20057;-73
2021/03/15 02:56:31;;;;;;;3.05;0.90;;;7.10;94.40;;;;;;5014067;28;20028;-73
2021/03/15 02:58:59;;;;;;;1.75;0.88;;;7.10;94.40;;;;;;5015579;28;20124;-73
2021/03/15 03:01:26;;;;;;;1.27;0.60;;;7.10;94.40;;;;;;4997468;28;20461;-74
2021/03/15 03:03:55;;;;;;;1.92;0.88;;;7.20;94.50;;;;;;5015396;28;20101;-74
2021/03/15 03:06:23;;;;;;;2.08;1.08;;;7.20;94.50;;;;;;4997365;28;20026;-75
2021/03/15 03:08:51;;;;;;;3.30;0.73;;;7.20;94.50;;;;;;5015482;28;20026;-74
2021/03/15 03:11:19;;;;;;;1.95;0.80;;;7.20;94.40;;;;;;5015390;28;20018;-73
2021/03/15 03:13:47;;;;;;;2.22;1.10;;;7.20;94.40;;;;;;4997630;28;20382;-76
2021/03/15 03:16:12;;;;;;;0.98;0.70;;;7.30;94.50;;;;;;5015472;28;20050;-74
2021/03/15 03:18:39;;;;;;;4.10;0.68;;;7.30;94.40;;;;;;5014783;28;20120;-73
2021/03/15 03:21:06;;;;;;;1.77;0.77;;;7.20;94.50;;;;;;4997741;28;20053;-74
2021/03/15 03:23:36;;;;;;;1.20;0.55;;;7.10;94.60;;;;;;5014492;28;20177;-74
2021/03/15 03:26:04;;;;;;;1.27;0.80;;;7.10;94.70;;;;;;5015032;28;20493;-74
2021/03/15 03:28:30;;;;;;;3.60;0.80;;;7.10;94.80;;;;;;4997078;28;20018;-74
2021/03/15 03:30:59;;;;;;;2.08;0.90;;;7.10;94.80;;;;;;5015087;28;20014;-73
2021/03/15 03:33:25;;;;;;;2.05;0.93;;;7.20;94.80;;;;;;5014384;28;20504;-74
2021/03/15 03:35:51;;;;;;;2.20;0.77;;;7.20;94.70;;;;;;5015354;28;20021;-74
2021/03/15 03:38:17;;;;;;;1.65;0.80;;;7.20;94.70;;;;;;5015188;28;20033;-73
2021/03/15 03:40:43;;;;;;;2.20;0.90;;;7.20;94.70;;;;;;5014334;28;20026;-73
2021/03/15 03:43:09;;;;;;;3.78;1.42;;;7.20;94.80;;;;;;5014988;28;20018;-73
2021/03/15 03:45:35;;;;;;;4.35;1.38;;;7.20;94.80;;;;;;5014307;28;20042;-73
2021/03/15 03:48:02;;;;;;;2.30;1.45;;;7.20;94.80;;;;;;4997197;28;20481;-73
2021/03/15 03:50:31;;;;;;;2.75;1.05;;;7.20;94.70;;;;;;5014075;28;20465;-73
2021/03/15 03:53:23;;;;;;;2.80;1.17;;;7.20;94.80;;;;;;5014829;28;20471;-73
2021/03/15 03:56:08;;;;;;;4.43;1.92;;;7.20;94.80;;;;;;4997368;28;20057;-73
2021/03/15 03:58:44;;;;;;;2.40;1.23;;;7.10;94.90;;;;;;5014424;28;20109;-74
2021/03/15 04:01:11;;;;;;;3.60;1.70;;;7.10;95.00;;;;;;4997138;28;20314;-73
2021/03/15 04:03:39;;;;;;;4.22;1.67;;;7.10;95.10;;;;;;5013743;28;20105;-73
2021/03/15 04:06:09;;;;;;;5.45;2.00;;;7.10;95.10;;;;;;4996505;28;20033;-74
2021/03/15 04:08:46;;;;;;;5.80;1.67;;;7.20;95.10;;;;;;5013561;28;20068;-74
2021/03/15 04:11:12;;;;;;;5.43;1.70;;;7.20;95.10;;;;;;5014468;28;20083;-74
2021/03/15 04:13:40;;;;;;;4.18;1.60;;;7.10;95.10;;;;;;5013560;28;20030;-73
2021/03/15 04:16:09;;;;;;;4.82;1.98;;;7.20;95.20;;;;;;5014550;28;20156;-73
2021/03/15 04:18:38;;;;;;;6.47;1.63;;;7.20;95.10;;;;;;5013581;28;20037;-74
2021/03/15 04:21:06;;;;;;;3.10;1.33;;;7.20;95.10;;;;;;5014255;28;20058;-73
2021/03/15 04:23:39;;;;;;;3.30;1.30;;;7.20;95.00;;;;;;5013563;28;20067;-74
2021/03/15 04:26:06;;;;;;;4.18;1.48;;;7.30;95.10;;;;;;5014244;28;20097;-77
2021/03/15 04:28:35;;;;;;;6.57;2.50;;;7.20;95.10;;;;;;4995982;28;20072;-75
2021/03/15 04:31:02;;;;;;;4.55;1.67;;;7.30;95.10;;;;;;5014494;28;20105;-73
2021/03/15 04:33:28;;;;;;;2.95;1.60;;;7.30;95.10;;;;;;5013503;28;20026;-74
2021/03/15 04:35:54;;;;;;;4.07;1.30;;;7.20;95.10;;;;;;5013831;28;20065;-74
2021/03/15 04:38:22;;;;;;;6.60;1.85;;;7.30;95.10;;;;;;5013560;28;20476;-74
2021/03/15 04:40:49;;;;;;;5.68;2.03;;;7.30;95.10;;;;;;5013214;28;20026;-73
2021/03/15 04:43:16;;;;;;;4.55;1.55;;;7.30;95.10;;;;;;5013769;28;20029;-73
2021/03/15 04:45:43;;;;;;;5.00;1.67;;;7.30;95.10;;;;;;5012903;28;20057;-73
2021/03/15 04:48:15;;;;;;;5.88;1.80;;;7.30;95.00;;;;;;5013721;28;20088;-75
2021/03/15 04:50:43;;;;;;;5.85;1.80;;;7.30;95.00;;;;;;5012876;28;20022;-73
2021/03/15 04:53:10;;;;;;;5.00;1.73;;;7.30;95.10;;;;;;5013743;28;20027;-73
2021/03/15 04:55:35;;;;;;;4.55;1.75;;;7.30;95.10;;;;;;5012684;28;20393;-74
2021/03/15 04:58:05;;;;;;;3.67;2.17;;;7.30;95.10;;;;;;5013517;28;20032;-74
2021/03/15 05:00:32;;;;;;;3.20;1.58;;;7.30;95.10;;;;;;5012955;28;20026;-75
2021/03/15 05:02:59;;;;;;;3.63;1.50;;;7.20;95.10;;;;;;5013675;28;20026;-74
2021/03/15 05:05:26;;;;;;;4.50;2.03;;;7.20;95.20;;;;;;5013080;28;20072;-74
2021/03/15 05:07:55;;;;;;;3.97;1.80;;;7.20;95.20;;;;;;5013429;28;20061;-76
2021/03/15 05:10:21;;;;;;;4.53;1.48;;;7.20;95.20;;;;;;4995839;28;20406;-69
2021/03/15 05:12:48;;;;;;;4.00;1.45;;;7.20;95.20;;;;;;5012888;28;20038;-74
2021/03/15 05:15:14;;;;;;;4.05;1.75;;;7.20;95.10;;;;;;5012891;28;20045;-72
2021/03/15 05:17:41;;;;;;;3.95;1.65;;;7.20;95.10;;;;;;5012074;28;20080;-74
2021/03/15 05:20:10;;;;;;;6.68;1.58;;;7.20;95.10;;;;;;4995462;28;20530;-75
2021/03/15 05:22:37;;;;;;;6.10;2.60;;;7.20;95.20;;;;;;4994832;28;20031;-75
2021/03/15 05:25:07;;;;;;;4.25;1.83;;;7.20;95.20;;;;;;5013225;28;20031;-74
2021/03/15 05:27:34;;;;;;;5.53;1.70;;;7.20;95.20;;;;;;5012349;28;20033;-74
2021/03/15 05:30:09;;;;;;;6.57;2.10;;;7.20;95.20;;;;;;5013148;28;20018;-75
2021/03/15 05:32:37;;;;;;;6.32;1.88;;;7.20;95.20;;;;;;5012305;28;20117;-72
2021/03/15 05:35:05;;;;;;;4.55;1.73;;;7.20;95.30;;;;;;5010444;28;20033;-73
2021/03/15 05:37:31;;;;;;;3.05;1.67;;;7.20;95.30;;;;;;4987763;28;20031;-73
2021/03/15 05:39:57;;;;;;;2.38;1.38;;;7.20;95.20;;;;;;4973781;28;20023;-74
2021/03/15 05:42:22;;;;;;;5.95;1.42;;;7.20;95.20;;;;;;4973435;28;20023;-73
2021/03/15 05:44:56;;;;;;;4.90;1.70;;;7.20;95.20;;;;;;4986921;28;20500;-74
2021/03/15 05:47:56;;;;;;;6.03;1.88;;;7.30;95.20;;;;;;4990351;28;20030;-74
2021/03/15 05:50:33;;;;;;;6.28;1.80;;;7.30;95.10;;;;;;4990499;28;20064;-74
2021/03/15 05:53:26;;;;;;;4.28;2.00;;;7.30;95.10;;;;;;4992956;28;20023;-73
2021/03/15 05:56:19;;;;;;;4.47;1.88;;;7.30;95.00;;;;;;4992086;28;20049;-73
2021/03/15 05:58:44;;;;;;;4.70;1.55;;;7.30;95.00;;;;;;4992584;28;20026;-73
2021/03/15 06:01:25;;;;;;;6.75;1.58;;;7.20;95.00;;;;;;4992943;28;20032;-74
2021/03/15 06:04:36;;;;;;;3.72;1.33;;;7.20;95.00;;;;;;4992064;28;20073;-74
2021/03/15 06:07:03;;;;;;;6.03;1.80;;;7.20;95.10;;;;;;4973194;28;20054;-75
2021/03/15 06:09:30;;;;;;;8.18;1.60;;;7.10;95.10;;;;;;4975287;28;20048;-74
2021/03/15 06:12:01;;;;;;;5.40;1.70;;;7.20;95.20;;;;;;4974734;28;20453;-74
2021/03/15 06:14:29;;;;;;;5.95;2.20;;;7.20;95.10;;;;;;4990288;28;20053;-79
2021/03/15 06:16:56;;;;;;;4.47;1.75;;;7.20;95.10;;;;;;4990314;28;20540;-78
2021/03/15 06:19:24;;;;;;;4.78;1.38;;;7.20;95.10;;;;;;4991645;28;20057;-85
2021/03/15 06:21:55;;;;;;;3.70;1.73;;;7.20;95.10;;;;;;5007641;28;20041;-79
2021/03/15 06:24:21;;;;;;;5.60;1.92;;;7.20;95.10;;;;;;4982286;28;20018;-86
2021/03/15 06:26:48;;;;;;;2.17;1.13;;;7.20;95.00;;;;;;4994370;28;20034;-86
2021/03/15 06:29:13;;;;;;;6.88;2.38;;;7.30;95.00;;;;;;4994908;28;20133;-85
2021/03/15 06:31:44;;;;;;;4.93;1.92;;;7.30;95.00;;;;;;4973238;28;20129;-84
2021/03/15 06:34:14;;;;;;;6.57;2.55;;;7.20;95.00;;;;;;4974296;28;20061;-74
2021/03/15 06:36:40;;;;;;;4.32;1.77;;;7.20;95.00;;;;;;4974218;28;20026;-75
2021/03/15 06:39:09;;;;;;;5.65;2.10;;;7.20;95.00;;;;;;4992365;28;20077;-74
2021/03/15 06:41:35;;;;;;;3.78;1.75;;;7.30;95.00;;;;;;4991791;28;20027;-75
2021/03/15 06:44:00;;;;;;;6.70;2.63;;;7.30;95.00;;;;;;4974835;28;20030;-76
2021/03/15 06:46:26;;;;;;;9.02;2.70;;;7.30;95.00;;;;;;4991603;28;20066;-76
2021/03/15 06:48:52;;;;;;;3.05;1.55;;;7.30;94.90;;;;;;4991633;28;20031;-74
2021/03/15 06:51:17;;;;;;;9.73;2.83;;;7.40;94.90;;;;;;4991920;28;20080;-75
2021/03/15 06:53:43;;;;;;;4.82;1.45;;;7.40;94.80;;;;;;4991663;28;20074;-75
2021/03/15 06:56:14;;;;;;;6.57;2.28;;;7.40;94.70;;;;;;4992203;28;20023;-75
2021/03/15 06:58:50;;;;;;;5.40;1.80;;;7.40;94.70;;;;;;4991345;28;20027;-74
2021/03/15 07:01:21;;;;;;;2.72;1.75;;;7.50;94.70;;;;;;4992115;28;20034;-75
2021/03/15 07:04:03;;;;;;;5.80;1.95;;;7.50;94.70;;;;;;4973738;28;20450;-74
2021/03/15 07:06:43;;;;;;;4.75;1.60;;;7.50;94.70;;;;;;4992066;28;20049;-75
2021/03/15 07:09:14;;;;;;;10.05;2.42;;;7.60;94.70;;;;;;4974632;28;20030;-75
2021/03/15 07:11:40;;;;;;;8.52;2.17;;;7.50;94.60;;;;;;4973780;28;20034;-74
2021/03/15 07:14:05;;;;;;;4.60;2.22;;;7.60;94.60;;;;;;4992004;28;20041;-76
2021/03/15 07:16:33;;;;;;;3.65;1.63;;;7.50;94.60;;;;;;4974646;28;20038;-75
2021/03/15 07:19:21;;;;;;;4.30;1.88;;;7.50;94.60;;;;;;4991599;28;20101;-75
2021/03/15 07:21:46;;;;;;;4.50;1.40;;;7.50;94.70;;;;;;4992022;28;20102;-74
2021/03/15 07:24:12;;;;;;;10.98;2.15;;;7.50;94.60;;;;;;4992095;28;20073;-75
2021/03/15 07:26:43;;;;;;;5.85;2.15;;;7.60;94.60;;;;;;4991905;28;20033;-75
2021/03/15 07:29:13;;;;;;;;;;;7.60;94.60;;;;;;4992302;28;20439;-75
2021/03/15 07:31:42;;;;;;;5.45;2.05;;;7.60;94.60;;;;;;4991462;28;19949;-75
2021/03/15 07:34:11;;;;;;;3.90;1.70;;;7.70;94.50;;;;;;4991984;28;20484;-75
2021/03/15 07:36:46;;;;;;;8.02;1.95;;;7.70;94.40;;;;;;4991930;28;20100;-77
2021/03/15 07:39:12;;;;;;;3.97;1.83;;;7.70;94.40;;;;;;4991907;28;20015;-76
2021/03/15 07:41:40;;;;;;;5.18;2.35;;;7.70;94.40;;;;;;4975258;28;20441;-74
2021/03/15 07:44:21;;;;;;;3.53;1.30;;;7.70;94.30;;;;;;4995489;28;20041;-76
2021/03/15 07:46:48;;;;;;;3.50;1.92;;;7.70;94.40;;;;;;4976866;28;20050;-75
2021/03/15 07:49:28;;;;;;;4.43;1.63;;;7.70;94.40;;;;;;4995705;28;20026;-76
2021/03/15 07:51:56;;;;;;;5.88;1.67;;;7.70;94.40;;;;;;4994630;28;20026;-75
2021/03/15 07:54:27;;;;;;;3.65;1.75;;;7.60;94.50;;;;;;4994929;28;20109;-76
2021/03/15 07:57:13;;;;;;;3.72;1.77;;;7.70;94.60;;;;;;4977082;28;20022;-75
2021/03/15 07:59:44;;;;;;;5.28;1.50;;;7.80;94.50;;;;;;4995121;28;20030;-74
2021/03/15 08:02:23;;;;;;;6.38;1.52;;;7.80;94.30;;;;;;4977736;28;20386;-74
2021/03/15 08:04:50;;;;;;;7.72;1.92;;;7.90;94.30;;;;;;4994166;28;20053;-75
2021/03/15 08:07:17;;;;;;;7.05;1.17;;;8.00;94.20;;;;;;4977447;28;20482;-75
2021/03/15 08:09:52;;;;;;;6.00;1.58;;;8.00;94.20;;;;;;4994325;28;20023;-75
2021/03/15 08:12:18;;;;;;;4.68;1.30;;;8.10;94.10;;;;;;4994677;28;20378;-75
2021/03/15 08:14:46;;;;;;;8.52;1.77;;;8.20;94.00;;;;;;4977127;28;20056;-73
2021/03/15 08:17:18;;;;;;;4.78;1.48;;;8.20;93.80;;;;;;4995332;28;20044;-75
2021/03/15 08:19:46;;;;;;;1.45;0.93;;;8.20;93.80;;;;;;4976587;28;20029;-75
2021/03/15 08:22:15;;;;;;;2.22;1.02;;;8.20;93.90;;;;;;4994635;28;20032;-75
2021/03/15 08:24:42;;;;;;;3.05;0.75;;;8.20;93.90;;;;;;4994353;28;20033;-75
2021/03/15 08:27:08;;;;;;;1.45;1.10;;;8.10;93.90;;;;;;4994659;28;20026;-75
2021/03/15 08:29:38;;;;;;;4.03;1.17;;;8.10;94.00;;;;;;4994404;28;20034;-76
2021/03/15 08:32:06;;;;;;;4.38;1.92;;;8.00;94.00;;;;;;4993952;28;20018;-74
2021/03/15 08:34:33;;;;;;;3.28;1.00;;;7.90;94.10;;;;;;4994477;28;20121;-74
2021/03/15 08:36:59;;;;;;;4.13;1.10;;;7.90;94.40;;;;;;4993779;28;20057;-75
2021/03/15 08:39:32;;;;;;;2.10;1.30;;;7.90;94.10;;;;;;4994486;28;20058;-75
2021/03/15 08:42:13;;;;;;;14.00;1.55;;;8.00;94.10;;;;;;4976363;28;20455;-76
2021/03/15 08:44:44;;;;;;;5.30;1.50;;;8.10;93.50;;;;;;4976874;28;20030;-75
2021/03/15 08:47:11;;;;;;;4.28;1.02;;;8.10;93.50;;;;;;4994297;28;20509;-74
2021/03/15 08:49:41;;;;;;;1.45;0.80;;;8.20;93.40;;;;;;4976715;28;20026;-75
2021/03/15 08:52:13;;;;;;;3.67;0.90;;;8.20;93.00;;;;;;4993541;28;20030;-75
2021/03/15 08:54:46;;;;;;;5.88;1.00;;;8.20;93.10;;;;;;4976645;28;20385;-74
2021/03/15 08:57:33;;;;;;;2.08;0.60;;;8.20;93.20;;;;;;4994049;28;20022;-75
2021/03/15 08:59:59;;;;;;;1.85;0.98;;;8.20;93.00;;;;;;4975766;28;20037;-76
2021/03/15 09:02:38;;;;;;;3.40;1.88;;;8.20;92.90;;;;;;4976392;28;20019;-74
2021/03/15 09:05:20;;;;;;;4.80;1.00;;;8.30;92.50;;;;;;4975921;28;20421;-75
2021/03/15 09:07:46;;;;;;;11.30;1.25;;;8.40;92.30;;;;;;4993410;28;20109;-75
2021/03/15 09:10:30;;;;;;;3.25;0.60;;;8.50;92.00;;;;;;4994136;28;20622;-75
2021/03/15 09:13:17;;;;;;;3.50;1.10;;;8.50;91.70;;;;;;4975801;28;20030;-75
2021/03/15 09:15:52;;;;;;;6.32;1.13;;;8.50;91.40;;;;;;4993597;28;20035;-75
2021/03/15 09:18:41;;;;;;;3.28;0.85;;;8.60;91.20;;;;;;4976368;28;20421;-75
2021/03/15 09:21:28;;;;;;;4.00;0.90;;;8.70;91.10;;;;;;4992819;28;20068;-75
2021/03/15 09:23:56;;;;;;;1.30;0.90;;;8.80;90.90;;;;;;4992907;28;20026;-74
2021/03/15 09:26:24;;;;;;;3.85;0.85;;;8.80;90.60;;;;;;4993413;28;20033;-75
2021/03/15 09:28:51;;;;;;;4.90;1.05;;;8.90;90.50;;;;;;4992681;28;20054;-75
2021/03/15 09:31:17;;;;;;;3.60;1.02;;;8.80;90.30;;;;;;4993402;28;20053;-75
2021/03/15 09:33:43;;;;;;;1.05;0.73;;;8.80;90.50;;;;;;4975939;28;20034;-75
2021/03/15 09:36:09;;;;;;;3.15;1.63;;;8.80;90.30;;;;;;4992695;28;20096;-76
2021/03/15 09:38:35;;;;;;;4.47;0.93;;;8.70;90.30;;;;;;4993232;28;20446;-75
2021/03/15 09:41:05;;;;;;;2.92;0.80;;;8.70;90.40;;;;;;4992412;28;20018;-75
2021/03/15 09:43:31;;;;;;;1.48;1.23;;;8.80;90.30;;;;;;4993327;28;20068;-75
2021/03/15 09:45:59;;;;;;;5.97;1.25;;;8.80;88.80;;;;;;4991981;28;20390;-75
2021/03/15 09:48:27;;;;;;;2.53;0.60;;;8.80;88.00;;;;;;4993070;28;20026;-75
2021/03/15 09:50:53;;;;;;;1.45;0.75;;;9.00;88.10;;;;;;4992307;28;20084;-73
2021/03/15 09:53:20;;;;;;;1.63;0.68;;;9.10;87.40;;;;;;4992684;28;20098;-75
2021/03/15 09:55:46;;;;;;;1.50;0.70;;;9.20;87.20;;;;;;4992645;28;20057;-75
2021/03/15 09:58:14;;;;;;;1.50;0.75;;;9.20;86.30;;;;;;4992267;28;20084;-75
2021/03/15 10:00:40;;;;;;;1.50;0.70;;;9.20;86.20;;;;;;4975316;28;20026;-74
2021/03/15 10:03:06;;;;;;;3.80;0.80;;;9.20;86.70;;;;;;4974834;28;20049;-75
2021/03/15 10:05:32;;;;;;;3.53;0.93;;;9.20;87.10;;;;;;4992346;28;20551;-74
2021/03/15 10:07:58;;;;;;;9.93;1.02;;;9.30;87.20;;;;;;4974759;28;20030;-75
2021/03/15 10:10:25;;;;;;;4.30;0.95;;;9.30;86.30;;;;;;4975084;28;20022;-75
2021/03/15 10:13:01;;;;;;;1.73;0.68;;;9.20;86.00;;;;;;4992404;28;20466;-75
2021/03/15 10:15:27;;;;;;;2.65;0.93;;;9.30;86.10;;;;;;4994558;28;20030;-74
2021/03/15 10:17:52;;;;;;;2.40;0.70;;;9.30;85.60;;;;;;4991952;28;20026;-75
2021/03/15 10:20:32;;;;;;;2.47;0.85;;;9.20;85.20;;;;;;4975250;28;20031;-74
2021/03/15 10:23:12;;;;;;;1.98;0.70;;;9.30;85.70;;;;;;4991871;28;20026;-75
2021/03/15 10:25:39;;;;;;;1.67;0.85;;;9.40;85.10;;;;;;4992549;28;20030;-74
2021/03/15 10:28:05;;;;;;;2.85;0.77;;;9.30;84.60;;;;;;4991710;28;20030;-75
2021/03/15 10:30:34;;;;;;;3.70;1.10;;;9.40;84.50;;;;;;4992430;28;20451;-74
2021/03/15 10:33:00;;;;;;;3.88;1.05;;;9.50;84.50;;;;;;4991707;28;20053;-73
2021/03/15 10:35:29;;;;;;;3.65;0.93;;;9.60;83.40;;;;;;4992315;28;20031;-75
2021/03/15 10:37:59;;;;;;;2.55;1.02;;;9.70;82.40;;;;;;4991636;28;20493;-74
2021/03/15 10:40:25;;;;;;;1.40;1.00;;;9.70;81.90;;;;;;4992275;28;20077;-75
2021/03/15 10:42:52;;;;;;;2.25;1.17;;;9.70;81.90;;;;;;4974737;28;20023;-74
2021/03/15 10:45:18;;;;;;;2.35;0.70;;;9.80;82.00;;;;;;4974708;28;20026;-74
2021/03/15 10:47:44;;;;;;;3.42;2.10;;;9.80;81.50;;;;;;4992691;28;20482;-75
2021/03/15 10:50:26;;;;;;;2.95;1.42;;;9.80;81.10;;;;;;4991683;28;20037;-75
2021/03/15 10:52:52;;;;;;;3.80;0.68;;;9.80;81.10;;;;;;4991991;28;20027;-75
2021/03/15 10:55:20;;;;;;;9.55;1.42;;;9.70;80.40;;;;;;4992136;28;20035;-75
2021/03/15 10:58:01;;;;;;;3.20;0.80;;;9.70;80.50;;;;;;4992214;28;20030;-75
2021/03/15 11:00:29;;;;;;;2.53;0.73;;;9.70;81.40;;;;;;4974683;28;20430;-75
2021/03/15 11:02:55;;;;;;;4.70;0.80;;;9.70;81.80;;;;;;4991417;28;20157;-75
2021/03/15 11:05:24;;;;;;;5.05;1.00;;;9.70;82.10;;;;;;4991752;28;20034;-75
2021/03/15 11:07:51;;;;;;;2.75;0.82;;;9.70;82.00;;;;;;4992160;28;20470;-75
2021/03/15 11:10:28;;;;;;;6.32;0.98;;;9.70;81.80;;;;;;4991388;28;20027;-75
2021/03/15 11:12:59;;;;;;;2.10;0.68;;;9.70;81.70;;;;;;4991905;28;20033;-75
2021/03/15 11:15:38;;;;;;;0.55;0.43;;;9.90;81.80;;;;;;4991993;28;20112;-75
2021/03/15 11:18:24;;;;;;;2.55;1.45;;;10.00;81.50;;;;;;4994798;28;20496;-75
2021/03/15 11:20:51;;;;;;;2.55;0.85;;;10.20;81.10;;;;;;4978431;28;20378;-74
2021/03/15 11:23:40;;;;;;;1.92;0.60;;;10.30;80.50;;;;;;4995217;28;20029;-74
2021/03/15 11:26:13;;;;;;;1.17;0.60;;;10.30;80.40;;;;;;4977350;28;20026;-75
2021/03/15 11:28:44;;;;;;;4.70;0.90;;;10.30;79.30;;;;;;4995576;28;20399;-75
2021/03/15 11:31:18;;;;;;;4.57;0.88;;;10.00;80.10;;;;;;4977547;28;20026;-74
2021/03/15 11:33:51;;;;;;;0.88;0.80;;;9.70;81.90;;;;;;4977656;28;20030;-75
2021/03/15 11:36:19;;;;;;;0.50;0.50;;;9.50;83.80;;;;;;4977300;28;20030;-74
2021/03/15 11:38:55;;;;;;;1.05;0.57;;;9.20;85.20;;;;;;4995462;28;20018;-76
2021/03/15 11:41:24;;;;;;;1.52;0.70;;;9.10;86.30;;;;;;4995270;28;20072;-75
2021/03/15 11:43:50;;;;;;;2.88;0.60;;;9.00;86.90;;;;;;4995020;28;20367;-74
2021/03/15 11:46:16;;;;;;;3.67;0.85;;;8.90;87.20;;;;;;4994156;28;20840;-74
2021/03/15 11:48:43;;;;;;;1.77;0.80;;;8.90;87.60;;;;;;4995377;28;20022;-75
2021/03/15 11:51:11;;;;;;;2.33;1.05;;;8.90;87.70;;;;;;4994709;28;20022;-75
2021/03/15 11:53:37;;;;;;;3.13;1.10;;;9.00;87.60;;;;;;4995011;28;20031;-76
2021/03/15 11:56:03;;;;;;;7.00;1.30;;;9.20;87.50;;;;;;4995037;28;20030;-76
2021/03/15 11:58:29;;;;;;;10.07;1.23;;;9.20;87.40;;;;;;4995075;28;20026;-76
2021/03/15 12:00:55;;;;;;;3.42;0.70;;;9.20;87.40;;;;;;4977545;28;20018;-75
2021/03/15 12:03:21;;;;;;;2.63;0.90;;;9.20;87.70;;;;;;4994538;28;20114;-76
2021/03/15 12:05:47;;;;;;;5.07;1.42;;;9.20;87.90;;;;;;4977616;28;20038;-75
2021/03/15 12:08:12;;;;;;;4.30;1.35;;;9.20;87.90;;;;;;4994031;28;20026;-75
2021/03/15 12:10:40;;;;;;;5.65;1.05;;;9.20;88.10;;;;;;4994625;28;20057;-75
2021/03/15 12:13:05;;;;;;;5.22;1.00;;;9.20;87.90;;;;;;4994190;28;20509;-75
2021/03/15 12:15:31;;;;;;;5.75;1.08;;;9.10;88.30;;;;;;4994543;28;20041;-76
2021/03/15 12:17:57;;;;;;;4.43;1.13;;;9.00;88.50;;;;;;4994382;28;20018;-76
2021/03/15 12:20:23;;;;;;;3.83;1.15;;;9.10;88.30;;;;;;4994152;28;20080;-75
2021/03/15 12:22:49;;;;;;;8.85;1.95;;;9.20;88.60;;;;;;4994879;28;20127;-76
2021/03/15 12:25:16;;;;;;;2.83;0.85;;;9.30;88.40;;;;;;4993968;28;20105;-75
2021/03/15 12:27:42;;;;;;;3.13;1.15;;;9.40;88.20;;;;;;4994265;28;20067;-75
2021/03/15 12:30:08;;;;;;;4.72;1.00;;;9.40;87.80;;;;;;4993606;28;20022;-75
2021/03/15 12:32:33;;;;;;;2.05;0.95;;;9.30;87.60;;;;;;4994474;28;20049;-76
2021/03/15 12:34:59;;;;;;;7.18;1.67;;;9.30;88.20;;;;;;4977076;28;20442;-75
2021/03/15 12:37:25;;;;;;;1.50;0.80;;;9.30;88.50;;;;;;4994217;28;20026;-75
2021/03/15 12:39:51;;;;;;;2.38;0.82;;;9.40;88.70;;;;;;4976732;28;20509;-75
2021/03/15 12:42:17;;;;;;;3.83;0.77;;;9.60;87.90;;;;;;4993735;28;20102;-75
2021/03/15 12:44:45;;;;;;;3.58;0.90;;;9.70;87.20;;;;;;4994305;28;20033;-75
2021/03/15 12:47:12;;;;;;;2.75;0.50;;;9.80;86.50;;;;;;4993654;28;20050;-75
2021/03/15 12:49:38;;;;;;;2.30;0.90;;;9.90;86.30;;;;;;4994088;28;20045;-74
2021/03/15 12:52:05;;;;;;;3.97;0.80;;;9.90;86.30;;;;;;4993449;28;20027;-74
2021/03/15 12:54:30;;;;;;;1.55;0.50;;;9.70;86.20;;;;;;4993964;28;20125;-75
2021/03/15 12:56:57;;;;;;;4.78;1.00;;;9.70;86.40;;;;;;4993886;28;20101;-75
2021/03/15 12:59:23;;;;;;;3.30;0.70;;;9.50;86.40;;;;;;4992887;28;20030;-75
2021/03/15 13:01:49;;;;;;;1.95;1.20;;;9.40;86.70;;;;;;4993908;28;20023;-75
2021/03/15 13:04:15;;;;;;;0.75;0.70;;;9.40;86.70;;;;;;4993107;28;20470;-75
2021/03/15 13:06:41;;;;;;;1.25;0.60;;;9.50;86.60;;;;;;4976058;28;20027;-74
2021/03/15 13:09:07;;;;;;;2.50;1.33;;;9.40;86.30;;;;;;4975672;28;20476;-74
2021/03/15 13:11:36;;;;;;;1.50;0.60;;;9.20;86.60;;;;;;4976210;28;20024;-75